Time;durP1;ratioP1;P1;durP2;ratioP2;P2;SDS_P1;SDS_P2;PMS_P1;PMS_P2;Temp;Humidity;BMP_temperature;BMP_pressure;BME280_temperature;BME280_humidity;BME280_pressure;Samples;Min_cycle;Max_cycle;Signal;HPM_P1;HPM_P2
2021/05/24 00:00:31;;;;;;;1999.90;999.90;;;11.90;1.00;;;;;;5041331;28;20906;-84
2021/05/24 00:02:57;;;;;;;1999.90;999.90;;;11.90;1.00;;;;;;5041664;28;20189;-84
2021/05/24 00:05:26;;;;;;;1999.90;999.90;;;11.90;1.00;;;;;;5040298;28;20465;-83
2021/05/24 00:07:54;;;;;;;1999.90;999.90;;;11.90;1.00;;;;;;5040835;28;20267;-84
2021/05/24 00:10:26;;;;;;;1999.90;999.90;;;11.70;1.00;;;;;;5041304;28;20620;-84
2021/05/24 00:12:53;;;;;;;1999.90;999.90;;;11.70;4.50;;;;;;5040956;28;20154;-84
2021/05/24 00:15:22;;;;;;;1999.90;999.90;;;11.60;1.00;;;;;;5039676;28;20169;-84
2021/05/24 00:17:48;;;;;;;1999.90;999.90;;;11.50;41.70;;;;;;5039749;28;20192;-84
2021/05/24 00:20:16;;;;;;;1999.90;999.90;;;11.50;96.60;;;;;;5041010;28;20181;-84
2021/05/24 00:22:42;;;;;;;1999.90;999.90;;;11.50;99.90;;;;;;5040021;28;20583;-85
2021/05/24 00:25:08;;;;;;;1999.90;999.90;;;11.50;99.90;;;;;;5040777;28;20537;-84
2021/05/24 00:27:37;;;;;;;1999.90;999.90;;;11.50;99.90;;;;;;5040081;28;20200;-83
2021/05/24 00:30:04;;;;;;;1999.90;999.90;;;11.60;99.90;;;;;;5041038;28;20165;-84
2021/05/24 00:32:30;;;;;;;1999.90;999.90;;;11.60;99.90;;;;;;5039612;28;20276;-84
2021/05/24 00:34:55;;;;;;;1999.90;999.90;;;11.60;99.90;;;;;;5040540;28;20644;-84
2021/05/24 00:37:21;;;;;;;1999.90;999.90;;;11.60;99.90;;;;;;5041056;28;20509;-84
2021/05/24 00:39:47;;;;;;;1999.90;999.90;;;11.70;99.90;;;;;;5040030;28;20169;-84
2021/05/24 00:42:13;;;;;;;1999.90;999.90;;;11.70;99.90;;;;;;5040062;28;20193;-84
2021/05/24 00:44:39;;;;;;;1999.90;999.90;;;11.70;99.90;;;;;;5039774;28;20180;-84
2021/05/24 00:47:05;;;;;;;1999.90;999.90;;;11.70;99.90;;;;;;5040018;28;20535;-84
2021/05/24 00:49:31;;;;;;;1999.90;999.90;;;11.70;99.90;;;;;;5039525;28;20193;-84
2021/05/24 00:51:57;;;;;;;1999.90;999.90;;;11.60;99.90;;;;;;5039633;28;20255;-84
2021/05/24 00:54:28;;;;;;;1999.90;999.90;;;11.50;99.90;;;;;;5038749;28;20183;-84
2021/05/24 00:56:58;;;;;;;1999.90;999.90;;;11.50;99.90;;;;;;5039661;28;20236;-84
2021/05/24 00:59:24;;;;;;;1999.90;999.90;;;11.50;99.90;;;;;;5039981;28;20177;-84
2021/05/24 01:01:53;;;;;;;1999.90;999.90;;;11.50;99.90;;;;;;5039833;28;20196;-84
2021/05/24 01:04:19;;;;;;;1999.90;999.90;;;11.40;99.90;;;;;;5038430;28;20439;-84
2021/05/24 01:06:47;;;;;;;1999.90;999.90;;;11.50;99.90;;;;;;5038619;28;20586;-84
2021/05/24 01:09:15;;;;;;;1999.90;999.90;;;11.50;99.90;;;;;;5040174;28;20221;-84
2021/05/24 01:11:46;;;;;;;1999.90;999.90;;;11.50;99.90;;;;;;5039235;28;20193;-84
2021/05/24 01:14:12;;;;;;;1999.90;999.90;;;11.50;99.90;;;;;;5039641;28;20160;-84
2021/05/24 01:16:39;;;;;;;1999.90;999.90;;;11.50;99.90;;;;;;5039934;28;20169;-84
2021/05/24 01:19:05;;;;;;;1999.90;999.90;;;11.40;99.90;;;;;;5038025;28;20193;-83
2021/05/24 01:21:30;;;;;;;1999.90;999.90;;;11.40;99.90;;;;;;5037875;28;20260;-84
2021/05/24 01:23:56;;;;;;;1999.90;999.90;;;11.40;99.90;;;;;;5040008;28;20197;-84
2021/05/24 01:26:22;;;;;;;1999.90;999.90;;;11.40;99.90;;;;;;5039834;28;20168;-84
2021/05/24 01:28:49;;;;;;;1999.90;999.90;;;11.40;99.90;;;;;;5038024;28;20185;-84
2021/05/24 01:31:15;;;;;;;1999.90;999.90;;;11.30;99.90;;;;;;5037951;28;20169;-83
2021/05/24 01:33:41;;;;;;;1999.90;999.90;;;11.40;99.90;;;;;;5039401;28;20165;-84
2021/05/24 01:36:09;;;;;;;1999.90;999.90;;;11.30;99.90;;;;;;5038196;28;20557;-84
2021/05/24 01:38:42;;;;;;;1999.90;999.90;;;11.30;99.90;;;;;;5039153;28;20428;-84
2021/05/24 01:41:10;;;;;;;1999.90;999.90;;;11.30;99.90;;;;;;5038069;28;20165;-84
2021/05/24 01:43:37;;;;;;;1999.90;999.90;;;11.30;99.90;;;;;;5038966;28;20189;-84
2021/05/24 01:46:04;;;;;;;1999.90;999.90;;;11.30;99.90;;;;;;5038974;28;20660;-84
2021/05/24 01:48:32;;;;;;;1999.90;999.90;;;11.40;99.90;;;;;;5039312;28;20185;-84
2021/05/24 01:50:58;;;;;;;1999.90;999.90;;;11.40;99.90;;;;;;5038594;28;20207;-84
2021/05/24 01:53:24;;;;;;;1999.90;999.90;;;11.30;99.90;;;;;;5039050;28;20204;-84
2021/05/24 01:55:50;;;;;;;1999.90;999.90;;;11.30;99.90;;;;;;5038504;28;20224;-84
2021/05/24 01:58:19;;;;;;;1999.90;999.90;;;11.20;99.90;;;;;;5038330;28;20181;-84
2021/05/24 02:00:46;;;;;;;1999.90;999.90;;;11.20;99.90;;;;;;5039277;28;20161;-84
2021/05/24 02:03:12;;;;;;;1999.90;999.90;;;11.20;99.90;;;;;;5037892;28;20204;-84
2021/05/24 02:05:38;;;;;;;1999.90;999.90;;;11.10;99.90;;;;;;5038939;28;20161;-84
2021/05/24 02:08:05;;;;;;;1999.90;999.90;;;11.20;99.90;;;;;;5037523;28;20611;-84
2021/05/24 02:10:37;;;;;;;1999.90;999.90;;;11.20;99.90;;;;;;5038424;28;20163;-84
2021/05/24 02:13:05;;;;;;;1999.90;999.90;;;11.20;99.90;;;;;;5038184;28;20177;-84
2021/05/24 02:15:33;;;;;;;1999.90;999.90;;;11.20;99.90;;;;;;5038596;28;20172;-84
2021/05/24 02:17:59;;;;;;;1999.90;999.90;;;11.10;99.90;;;;;;5037273;28;20611;-83
2021/05/24 02:20:27;;;;;;;1999.90;999.90;;;11.10;99.90;;;;;;5037417;28;20173;-84
2021/05/24 02:22:54;;;;;;;1999.90;999.90;;;11.10;99.90;;;;;;5038087;28;20207;-84
2021/05/24 02:25:21;;;;;;;1999.90;999.90;;;11.00;99.90;;;;;;5037939;28;20161;-84
2021/05/24 02:27:50;;;;;;;1999.90;999.90;;;11.00;99.90;;;;;;5036938;28;20193;-84
2021/05/24 02:30:17;;;;;;;1999.90;999.90;;;11.00;99.90;;;;;;5036576;28;20166;-84
2021/05/24 02:32:45;;;;;;;1999.90;999.90;;;11.10;99.90;;;;;;5037288;28;20195;-84
2021/05/24 02:35:13;;;;;;;1999.90;999.90;;;11.00;99.90;;;;;;5038054;28;20230;-83
2021/05/24 02:37:40;;;;;;;1999.90;999.90;;;11.00;99.90;;;;;;5037711;28;20205;-84
2021/05/24 02:40:10;;;;;;;1999.90;999.90;;;11.00;99.90;;;;;;5038123;28;20180;-83
2021/05/24 02:42:36;;;;;;;1999.90;999.90;;;10.90;99.90;;;;;;5038148;28;20200;-84
2021/05/24 02:45:09;;;;;;;1999.90;999.90;;;10.90;99.90;;;;;;5037119;28;20165;-84
2021/05/24 02:47:38;;;;;;;1999.90;999.90;;;11.00;99.90;;;;;;5038017;28;20188;-84
2021/05/24 02:50:06;;;;;;;1999.90;999.90;;;10.90;99.90;;;;;;5036920;28;20171;-83
2021/05/24 02:52:31;;;;;;;1999.90;999.90;;;11.00;99.90;;;;;;5038619;28;20224;-83
2021/05/24 02:54:57;;;;;;;1999.90;999.90;;;10.90;99.90;;;;;;5038524;28;20193;-84
2021/05/24 02:57:23;;;;;;;1999.90;999.90;;;10.80;99.90;;;;;;5037984;28;20220;-83
2021/05/24 02:59:48;;;;;;;1999.90;999.90;;;10.80;99.90;;;;;;5038528;28;20176;-84
2021/05/24 03:02:16;;;;;;;1999.90;999.90;;;10.70;99.90;;;;;;5036481;28;20291;-83
2021/05/24 03:04:44;;;;;;;1999.90;999.90;;;10.70;99.90;;;;;;5038110;28;20163;-84
2021/05/24 03:07:10;;;;;;;1999.90;999.90;;;10.70;99.90;;;;;;5038278;28;20162;-84
2021/05/24 03:09:36;;;;;;;1999.90;999.90;;;10.70;99.90;;;;;;5037785;28;20678;-84
2021/05/24 03:12:02;;;;;;;1999.90;999.90;;;10.70;99.90;;;;;;5038163;28;20553;-84
2021/05/24 03:14:29;;;;;;;1999.90;999.90;;;10.80;99.90;;;;;;5037911;28;20176;-84
2021/05/24 03:16:54;;;;;;;1999.90;999.90;;;10.80;99.90;;;;;;5037742;28;20169;-83
2021/05/24 03:19:20;;;;;;;1999.90;999.90;;;10.90;99.90;;;;;;5037263;28;20653;-83
2021/05/24 03:21:46;;;;;;;1999.90;999.90;;;10.90;99.90;;;;;;5036004;28;20252;-84
2021/05/24 03:24:12;;;;;;;1999.90;999.90;;;11.00;99.90;;;;;;5036843;28;20193;-84
2021/05/24 03:26:38;;;;;;;1999.90;999.90;;;10.90;99.90;;;;;;5038280;28;20161;-84
2021/05/24 03:29:04;;;;;;;1999.90;999.90;;;11.00;99.90;;;;;;5037924;28;20474;-83
2021/05/24 03:31:30;;;;;;;1999.90;999.90;;;11.00;99.90;;;;;;5038757;28;20161;-84
2021/05/24 03:33:56;;;;;;;1999.90;999.90;;;11.00;99.90;;;;;;5037737;28;20256;-84
2021/05/24 03:36:25;;;;;;;1999.90;999.90;;;10.90;99.90;;;;;;5036886;28;20430;-84
2021/05/24 03:38:50;;;;;;;1999.90;999.90;;;11.00;99.90;;;;;;5038204;28;20424;-83
2021/05/24 03:41:17;;;;;;;1999.90;999.90;;;11.00;99.90;;;;;;5036948;28;20171;-84
2021/05/24 03:43:44;;;;;;;1999.90;999.90;;;10.90;99.90;;;;;;5037573;28;20204;-83
2021/05/24 03:46:10;;;;;;;1999.90;999.90;;;10.90;99.90;;;;;;5036955;28;20179;-84
2021/05/24 03:48:39;;;;;;;1999.90;999.90;;;10.90;99.90;;;;;;5037789;28;20731;-83
2021/05/24 03:51:06;;;;;;;1999.90;999.90;;;10.90;99.90;;;;;;5038182;28;20161;-83
2021/05/24 03:53:32;;;;;;;1999.90;999.90;;;10.90;99.90;;;;;;5038099;28;20161;-83
2021/05/24 03:55:58;;;;;;;1999.90;999.90;;;10.90;99.90;;;;;;5037725;28;20210;-84
2021/05/24 03:58:24;;;;;;;1999.90;999.90;;;11.00;99.90;;;;;;5036605;28;20842;-83
2021/05/24 04:00:49;;;;;;;1999.90;999.90;;;11.00;99.90;;;;;;5036388;28;20170;-83
2021/05/24 04:03:17;;;;;;;1999.90;999.90;;;11.10;99.90;;;;;;5037012;28;21101;-84
2021/05/24 04:05:46;;;;;;;1999.90;999.90;;;11.20;99.90;;;;;;5038000;28;20172;-84
2021/05/24 04:08:12;;;;;;;1999.90;999.90;;;11.20;99.90;;;;;;5036069;28;20185;-84
2021/05/24 04:10:45;;;;;;;1999.90;999.90;;;11.20;99.90;;;;;;5036567;28;20169;-84
2021/05/24 04:13:13;;;;;;;1999.90;999.90;;;11.20;99.90;;;;;;5037209;28;20180;-84
2021/05/24 04:15:45;;;;;;;1999.90;999.90;;;11.20;99.90;;;;;;5037254;28;20162;-83
2021/05/24 04:18:19;;;;;;;1999.90;999.90;;;11.30;99.90;;;;;;5037122;28;20695;-84
2021/05/24 04:20:46;;;;;;;1999.90;999.90;;;11.30;99.90;;;;;;5039297;28;20165;-84
2021/05/24 04:23:31;;;;;;;;;;;;;;;;;;;;;
2021/05/24 04:26:06;;;;;;;1999.90;999.90;;;11.40;99.90;;;;;;5040960;28;20241;-84
2021/05/24 04:28:32;;;;;;;1999.90;999.90;;;11.50;99.90;;;;;;5041002;28;20218;-84
2021/05/24 04:31:00;;;;;;;1999.90;999.90;;;11.50;99.90;;;;;;5039614;28;20169;-83
2021/05/24 04:33:29;;;;;;;1999.90;999.90;;;11.50;99.90;;;;;;5041287;28;20157;-84
2021/05/24 04:36:10;;;;;;;1999.90;999.90;;;11.40;99.90;;;;;;5040485;28;20268;-84
2021/05/24 04:38:35;;;;;;;1999.90;999.90;;;11.40;99.90;;;;;;5039411;28;20200;-84
2021/05/24 04:41:01;;;;;;;1999.90;999.90;;;11.50;99.90;;;;;;5039547;28;20169;-84
2021/05/24 04:43:33;;;;;;;1999.90;999.90;;;11.50;99.90;;;;;;5040766;28;20232;-84
2021/05/24 04:46:02;;;;;;;1999.90;999.90;;;11.50;99.90;;;;;;5040735;28;20174;-84
2021/05/24 04:48:30;;;;;;;1999.90;999.90;;;11.60;99.90;;;;;;5040419;28;20720;-83
2021/05/24 04:50:56;;;;;;;1999.90;999.90;;;11.60;99.90;;;;;;5038963;28;20223;-85
2021/05/24 04:53:26;;;;;;;1999.90;999.90;;;11.70;99.90;;;;;;5040479;28;20564;-83
2021/05/24 04:58:50;;;;;;;1999.90;999.90;;;11.80;99.90;;;;;;5037840;28;20343;-84
2021/05/24 05:01:25;;;;;;;1999.90;999.90;;;11.80;99.90;;;;;;5038162;28;20188;-84
2021/05/24 05:04:02;;;;;;;1999.90;999.90;;;11.80;99.90;;;;;;5039330;28;20216;-83
2021/05/24 05:06:28;;;;;;;1999.90;999.90;;;11.90;99.90;;;;;;5037956;28;20165;-85
2021/05/24 05:08:59;;;;;;;1999.90;999.90;;;12.00;99.90;;;;;;5039413;28;20530;-83
2021/05/24 05:11:30;;;;;;;1999.90;999.90;;;12.00;99.90;;;;;;5040961;28;20728;-83
2021/05/24 05:14:02;;;;;;;1999.90;999.90;;;12.10;99.90;;;;;;5039221;28;20556;-83
2021/05/24 05:16:51;;;;;;;1999.90;999.90;;;12.10;99.90;;;;;;5039200;28;20181;-84
2021/05/24 05:19:35;;;;;;;1999.90;999.90;;;12.20;99.90;;;;;;5039083;28;20197;-84
2021/05/24 05:22:21;;;;;;;1999.90;999.90;;;12.30;99.90;;;;;;5038510;28;20161;-84
2021/05/24 05:25:10;;;;;;;1999.90;999.90;;;12.30;99.90;;;;;;5039147;28;20215;-84
2021/05/24 05:28:15;;;;;;;;;;;;;;;;;;;;;
2021/05/24 05:30:41;;;;;;;1999.90;999.90;;;12.50;99.90;;;;;;5039261;28;20240;-83
2021/05/24 05:33:18;;;;;;;1999.90;999.90;;;12.60;99.90;;;;;;5036730;28;20558;-84
2021/05/24 05:35:47;;;;;;;1999.90;999.90;;;12.70;99.90;;;;;;5116954;22;20545;-82
2021/05/24 05:38:13;;;;;;;1999.90;999.90;;;12.80;99.90;;;;;;5037829;28;20182;-82
2021/05/24 05:40:39;;;;;;;1999.90;999.90;;;12.90;99.90;;;;;;5039653;28;20244;-83
2021/05/24 05:43:05;;;;;;;1999.90;999.90;;;12.90;99.90;;;;;;5039659;28;20217;-83
2021/05/24 05:45:30;;;;;;;1999.90;999.90;;;13.00;99.90;;;;;;5038183;28;20165;-83
2021/05/24 05:47:58;;;;;;;1999.90;999.90;;;13.10;99.90;;;;;;5038901;28;20192;-83
2021/05/24 05:50:24;;;;;;;1999.90;999.90;;;13.20;99.90;;;;;;5038488;28;20165;-82
2021/05/24 05:52:49;;;;;;;1999.90;999.90;;;13.30;99.90;;;;;;5038683;28;20667;-83
2021/05/24 05:55:15;;;;;;;1999.90;999.90;;;13.30;99.90;;;;;;5039121;28;20748;-83
2021/05/24 05:57:41;;;;;;;1999.90;999.90;;;13.40;99.90;;;;;;5038961;28;20208;-82
2021/05/24 06:00:07;;;;;;;1999.90;999.90;;;13.30;99.90;;;;;;5039788;28;20176;-82
2021/05/24 06:02:32;;;;;;;1999.90;999.90;;;13.30;99.90;;;;;;5038796;28;20181;-82
2021/05/24 06:04:58;;;;;;;1999.90;999.90;;;13.20;99.90;;;;;;5038653;28;20219;-84
2021/05/24 06:07:24;;;;;;;1999.90;999.90;;;13.20;99.90;;;;;;5037091;28;20304;-82
2021/05/24 06:09:49;;;;;;;1999.90;999.90;;;13.20;99.90;;;;;;5038656;28;20207;-83
2021/05/24 06:12:15;;;;;;;1999.90;999.90;;;13.30;99.90;;;;;;5039461;28;20695;-83
2021/05/24 06:14:41;;;;;;;1999.90;999.90;;;13.40;99.90;;;;;;5037731;28;20536;-83
2021/05/24 06:17:07;;;;;;;1999.90;999.90;;;13.50;99.90;;;;;;5039148;28;20435;-83
2021/05/24 06:19:33;;;;;;;1999.90;999.90;;;13.60;99.90;;;;;;5038013;28;20185;-83
2021/05/24 06:21:58;;;;;;;1999.90;999.90;;;13.70;99.90;;;;;;5037712;28;20236;-83
2021/05/24 06:24:24;;;;;;;1999.90;999.90;;;13.70;99.90;;;;;;5038534;28;20479;-82
2021/05/24 06:26:50;;;;;;;1999.90;999.90;;;13.80;99.90;;;;;;5038295;28;20165;-82
2021/05/24 06:29:22;;;;;;;1999.90;999.90;;;13.80;99.90;;;;;;5039013;28;20427;-82
2021/05/24 06:31:50;;;;;;;1999.90;999.90;;;14.00;99.90;;;;;;5038163;28;20899;-83
2021/05/24 06:34:15;;;;;;;1999.90;999.90;;;14.00;99.90;;;;;;5036491;28;20919;-83
2021/05/24 06:36:41;;;;;;;1999.90;999.90;;;14.00;99.90;;;;;;5036722;28;20485;-82
2021/05/24 06:39:08;;;;;;;1999.90;999.90;;;14.10;99.90;;;;;;5039287;28;20266;-83
2021/05/24 06:41:33;;;;;;;1999.90;999.90;;;14.10;99.90;;;;;;5040407;28;20449;-82
2021/05/24 06:43:59;;;;;;;1999.90;999.90;;;14.20;99.90;;;;;;5038344;28;20435;-81
2021/05/24 06:46:26;;;;;;;1999.90;999.90;;;14.20;99.90;;;;;;5038763;28;20169;-82
2021/05/24 06:48:52;;;;;;;1999.90;999.90;;;14.20;99.90;;;;;;5036842;28;20795;-83
2021/05/24 06:51:19;;;;;;;1999.90;999.90;;;14.30;99.90;;;;;;5039797;28;20491;-83
2021/05/24 06:53:45;;;;;;;1999.90;999.90;;;14.40;99.90;;;;;;5040243;28;20493;-83
2021/05/24 06:56:11;;;;;;;1999.90;999.90;;;14.50;99.90;;;;;;5039778;28;20411;-83
2021/05/24 06:58:37;;;;;;;1999.90;999.90;;;14.50;99.90;;;;;;5039639;28;20478;-83
2021/05/24 07:01:03;;;;;;;1999.90;999.90;;;14.60;99.90;;;;;;5038049;28;20428;-83
2021/05/24 07:03:29;;;;;;;1999.90;999.90;;;14.70;99.90;;;;;;5037472;28;20189;-83
2021/05/24 07:05:56;;;;;;;1999.90;999.90;;;14.80;99.90;;;;;;5039896;28;20404;-83
2021/05/24 07:08:22;;;;;;;1999.90;999.90;;;14.90;99.90;;;;;;5039714;28;20439;-83
2021/05/24 07:10:47;;;;;;;1999.90;999.90;;;15.00;99.90;;;;;;5038145;28;20416;-83
2021/05/24 07:13:13;;;;;;;1999.90;999.90;;;15.10;99.90;;;;;;5040147;28;20446;-82
2021/05/24 07:15:39;;;;;;;1999.90;999.90;;;15.20;99.90;;;;;;5038573;28;20208;-83
2021/05/24 07:18:05;;;;;;;1999.90;999.90;;;15.30;99.90;;;;;;5036554;28;20189;-83
2021/05/24 07:20:31;;;;;;;1999.90;999.90;;;15.50;99.90;;;;;;5037683;28;20502;-83
2021/05/24 07:22:57;;;;;;;1999.90;999.90;;;15.60;99.90;;;;;;5038209;28;20466;-82
2021/05/24 07:25:23;;;;;;;1999.90;999.90;;;15.60;99.90;;;;;;5037777;28;20161;-82
2021/05/24 07:27:51;;;;;;;1999.90;999.90;;;15.70;97.50;;;;;;5037083;28;20220;-82
2021/05/24 07:30:17;;;;;;;1999.90;999.90;;;15.80;98.30;;;;;;5035286;28;20173;-82
2021/05/24 07:32:44;;;;;;;1999.90;999.90;;;15.80;96.20;;;;;;5035406;28;20424;-82
2021/05/24 07:35:10;;;;;;;1999.90;999.90;;;15.90;95.10;;;;;;5035658;28;20166;-82
2021/05/24 07:37:39;;;;;;;1999.90;999.90;;;16.00;95.70;;;;;;5036218;28;20437;-82
2021/05/24 07:40:07;;;;;;;1999.90;999.90;;;16.20;97.30;;;;;;5033773;28;20421;-82
2021/05/24 07:42:33;;;;;;;1999.90;999.90;;;16.30;94.90;;;;;;5034833;28;20804;-82
2021/05/24 07:44:59;;;;;;;1999.90;999.90;;;16.40;94.40;;;;;;5036223;28;20895;-82
2021/05/24 07:47:25;;;;;;;1999.90;999.90;;;16.50;96.00;;;;;;5035286;28;20419;-82
2021/05/24 07:49:50;;;;;;;1999.90;999.90;;;16.60;95.10;;;;;;5034564;28;20178;-81
2021/05/24 07:52:16;;;;;;;1999.90;999.90;;;16.60;95.20;;;;;;5034576;28;20331;-82
2021/05/24 07:54:42;;;;;;;1999.90;999.90;;;16.60;94.30;;;;;;5035916;28;20270;-82
2021/05/24 07:57:08;;;;;;;1999.90;999.90;;;16.70;91.90;;;;;;5039586;28;20631;-81
2021/05/24 07:59:34;;;;;;;1999.90;999.90;;;16.80;93.10;;;;;;5039493;28;20194;-83
2021/05/24 08:02:02;;;;;;;1999.90;999.90;;;16.90;93.40;;;;;;5039237;28;20487;-83
2021/05/24 08:04:28;;;;;;;1999.90;999.90;;;17.10;91.10;;;;;;5038059;28;20203;-83
2021/05/24 08:06:54;;;;;;;1999.90;999.90;;;17.10;91.10;;;;;;5039751;28;20897;-83
2021/05/24 08:09:20;;;;;;;1999.90;999.90;;;17.30;91.50;;;;;;5040170;28;20520;-82
2021/05/24 08:11:46;;;;;;;1999.90;999.90;;;17.30;92.30;;;;;;5040156;28;20167;-82
2021/05/24 08:14:14;;;;;;;1999.90;999.90;;;17.20;91.20;;;;;;5039843;28;20603;-82
2021/05/24 08:16:44;;;;;;;1999.90;999.90;;;17.10;94.50;;;;;;5040282;28;20182;-82
2021/05/24 08:19:11;;;;;;;1999.90;999.90;;;17.00;95.10;;;;;;5040633;28;20492;-81
2021/05/24 08:21:39;;;;;;;1999.90;999.90;;;17.00;94.40;;;;;;5038799;28;20416;-83
2021/05/24 08:24:06;;;;;;;1999.90;999.90;;;16.90;88.50;;;;;;5038397;28;20482;-82
2021/05/24 08:26:31;;;;;;;1999.90;999.90;;;16.80;84.60;;;;;;5039490;28;20939;-83
2021/05/24 08:28:57;;;;;;;1999.90;999.90;;;16.80;85.60;;;;;;5038941;28;20477;-83
2021/05/24 08:31:23;;;;;;;1999.90;999.90;;;16.90;85.80;;;;;;5038056;28;20182;-83
2021/05/24 08:33:48;;;;;;;1999.90;999.90;;;16.80;73.60;;;;;;5039294;28;20415;-83
2021/05/24 08:36:14;;;;;;;1999.90;999.90;;;16.90;83.10;;;;;;5039503;28;20193;-82
2021/05/24 08:38:40;;;;;;;1999.90;999.90;;;17.00;84.10;;;;;;5039905;28;20226;-82
2021/05/24 08:41:09;;;;;;;1999.90;999.90;;;16.90;75.70;;;;;;5040489;28;20206;-83
2021/05/24 08:43:36;;;;;;;1999.90;999.90;;;16.90;68.80;;;;;;5040183;28;20957;-82
2021/05/24 08:46:02;;;;;;;1999.90;999.90;;;16.90;77.60;;;;;;5040261;28;20417;-82
2021/05/24 08:48:28;;;;;;;1999.90;999.90;;;16.90;81.30;;;;;;5039378;28;20424;-83
2021/05/24 08:50:54;;;;;;;1999.90;999.90;;;16.90;64.20;;;;;;5040934;28;20415;-83
2021/05/24 08:53:20;;;;;;;1999.90;999.90;;;16.90;69.40;;;;;;5040940;28;20266;-84
2021/05/24 08:55:47;;;;;;;1999.90;999.90;;;16.80;62.80;;;;;;5040879;28;20262;-83
2021/05/24 08:58:13;;;;;;;1999.90;999.90;;;16.70;66.90;;;;;;5039920;28;20439;-83
2021/05/24 09:00:39;;;;;;;1999.90;999.90;;;16.70;62.30;;;;;;5041776;28;20899;-81
2021/05/24 09:03:19;;;;;;;1999.90;999.90;;;16.70;53.70;;;;;;5040789;28;20457;-85
2021/05/24 09:05:45;;;;;;;1999.90;999.90;;;16.70;58.70;;;;;;5043204;28;20382;-84
2021/05/24 09:08:11;;;;;;;1999.90;999.90;;;16.80;58.50;;;;;;5040730;28;20798;-83
2021/05/24 09:10:42;;;;;;;1999.90;999.90;;;16.80;62.30;;;;;;5042075;28;20429;-85
2021/05/24 09:13:13;;;;;;;1999.90;999.90;;;16.80;60.40;;;;;;5041288;28;20405;-82
2021/05/24 09:15:41;;;;;;;1999.90;999.90;;;16.70;57.00;;;;;;5042686;28;20436;-84
2021/05/24 09:18:09;;;;;;;1999.90;999.90;;;16.60;58.30;;;;;;5045840;28;20439;-85
2021/05/24 09:20:43;;;;;;;1999.90;999.90;;;16.70;60.80;;;;;;5045483;28;20818;-83
2021/05/24 09:23:18;;;;;;;1999.90;999.90;;;16.70;58.30;;;;;;5042868;28;20481;-83
2021/05/24 09:25:58;;;;;;;1999.90;999.90;;;16.70;62.00;;;;;;5043827;28;20445;-84
2021/05/24 09:28:40;;;;;;;1999.90;999.90;;;16.80;67.10;;;;;;5041975;28;20448;-84
2021/05/24 09:31:16;;;;;;;1999.90;999.90;;;16.90;49.20;;;;;;5042244;28;20387;-84
2021/05/24 09:33:48;;;;;;;1999.90;999.90;;;16.80;35.70;;;;;;5038112;28;20386;-83
2021/05/24 09:36:15;;;;;;;1999.90;999.90;;;16.90;41.30;;;;;;5038781;28;20491;-84
2021/05/24 09:38:47;;;;;;;1999.90;999.90;;;16.80;38.90;;;;;;5041299;28;20466;-85
2021/05/24 09:41:15;;;;;;;1999.90;999.90;;;16.80;39.30;;;;;;5040754;28;20394;-85
2021/05/24 09:43:49;;;;;;;1999.90;999.90;;;16.80;36.90;;;;;;5040918;28;20447;-84
2021/05/24 09:46:26;;;;;;;1999.90;999.90;;;16.80;40.10;;;;;;5043213;28;20403;-84
2021/05/24 09:49:00;;;;;;;1999.90;999.90;;;16.80;45.00;;;;;;5039375;28;20432;-85
2021/05/24 09:51:28;;;;;;;1999.90;999.90;;;16.80;44.50;;;;;;5041731;28;20385;-84
2021/05/24 09:54:05;;;;;;;1999.90;999.90;;;16.70;42.60;;;;;;5042154;28;20502;-83
2021/05/24 09:56:37;;;;;;;1999.90;999.90;;;16.70;46.90;;;;;;5039383;28;20807;-84
2021/05/24 09:59:06;;;;;;;1999.90;999.90;;;16.70;44.20;;;;;;5041986;28;20428;-84
2021/05/24 10:01:42;;;;;;;1999.90;999.90;;;16.70;38.40;;;;;;5040999;28;20401;-84
2021/05/24 10:04:11;;;;;;;1999.90;999.90;;;16.60;34.00;;;;;;5042389;28;20439;-86
2021/05/24 10:06:38;;;;;;;1999.90;999.90;;;16.60;36.70;;;;;;5040616;28;20440;-85
2021/05/24 10:09:06;;;;;;;1999.90;999.90;;;16.40;25.90;;;;;;5041477;28;20450;-85
2021/05/24 10:11:32;;;;;;;1999.90;999.90;;;16.30;26.40;;;;;;5041123;28;20413;-85
2021/05/24 10:13:59;;;;;;;1999.90;999.90;;;16.30;22.50;;;;;;5040082;28;20447;-84
2021/05/24 10:16:32;;;;;;;1999.90;999.90;;;16.20;22.90;;;;;;5035451;28;20455;-84
2021/05/24 10:18:58;;;;;;;1999.90;999.90;;;16.20;18.70;;;;;;5037137;28;20415;-84
2021/05/24 10:21:25;;;;;;;1999.90;999.90;;;16.20;16.60;;;;;;5037204;28;20415;-85
2021/05/24 10:23:51;;;;;;;1999.90;999.90;;;16.20;17.00;;;;;;5035896;28;20447;-85
2021/05/24 10:26:19;;;;;;;1999.90;999.90;;;16.20;19.70;;;;;;5035905;28;20408;-85
2021/05/24 10:28:46;;;;;;;1999.90;999.90;;;16.10;17.10;;;;;;5036388;28;21013;-86
2021/05/24 10:31:18;;;;;;;1999.90;999.90;;;16.10;16.50;;;;;;5040137;28;20410;-86
2021/05/24 10:33:45;;;;;;;1999.90;999.90;;;16.20;16.00;;;;;;5038882;28;20891;-86
2021/05/24 10:36:18;;;;;;;1999.90;999.90;;;16.20;20.80;;;;;;5041355;28;20427;-86
2021/05/24 10:38:59;;;;;;;1999.90;999.90;;;16.20;16.50;;;;;;5040672;28;21044;-85
2021/05/24 10:41:39;;;;;;;1999.90;999.90;;;16.30;18.20;;;;;;5039266;28;20415;-85
2021/05/24 10:44:09;;;;;;;1999.90;999.90;;;16.30;18.60;;;;;;5037011;28;20433;-85
2021/05/24 10:46:35;;;;;;;1999.90;999.90;;;16.30;23.30;;;;;;5038204;28;20427;-84
2021/05/24 10:49:10;;;;;;;1999.90;999.90;;;16.50;28.20;;;;;;5036613;28;20423;-83
2021/05/24 10:51:45;;;;;;;1999.90;999.90;;;16.50;29.20;;;;;;5037013;28;20427;-85
2021/05/24 10:54:11;;;;;;;1999.90;999.90;;;16.60;32.80;;;;;;5039857;28;20428;-85
2021/05/24 10:56:43;;;;;;;1999.90;999.90;;;16.60;43.30;;;;;;5039025;28;20402;-83
2021/05/24 10:59:40;;;;;;;1999.90;999.90;;;16.60;43.80;;;;;;5036367;28;20427;-79
2021/05/24 11:02:29;;;;;;;1999.90;999.90;;;16.60;45.00;;;;;;5034007;28;20453;-81
2021/05/24 11:05:04;;;;;;;1999.90;999.90;;;16.70;51.30;;;;;;5034254;28;20799;-81
2021/05/24 11:07:48;;;;;;;1999.90;999.90;;;16.70;57.50;;;;;;5034290;28;20477;-82
2021/05/24 11:10:14;;;;;;;1999.90;999.90;;;16.70;72.40;;;;;;5035469;28;20398;-82
2021/05/24 11:12:41;;;;;;;1999.90;999.90;;;16.80;73.60;;;;;;5037157;28;20798;-82
2021/05/24 11:15:33;;;;;;;1999.90;999.90;;;16.90;82.80;;;;;;5036565;28;20217;-84
2021/05/24 11:17:58;;;;;;;1999.90;999.90;;;16.90;78.60;;;;;;5036118;28;20425;-82
2021/05/24 11:20:49;;;;;;;1999.90;999.90;;;16.90;87.40;;;;;;5032516;28;20781;-82
2021/05/24 11:23:42;;;;;;;1999.90;999.90;;;16.90;91.80;;;;;;5033065;28;20478;-81
2021/05/24 11:26:36;;;;;;;1999.90;999.90;;;16.70;94.60;;;;;;5033525;28;20418;-82
2021/05/24 11:29:09;;;;;;;1999.90;999.90;;;16.60;94.20;;;;;;5032944;28;20458;-81
2021/05/24 11:31:44;;;;;;;1999.90;999.90;;;16.70;95.40;;;;;;5035636;28;20402;-81
2021/05/24 11:34:36;;;;;;;1999.90;999.90;;;16.60;96.20;;;;;;5036335;28;20470;-81
2021/05/24 11:54:49;;;;;;;1999.90;999.90;;;16.40;99.10;;;;;;4963976;28;20575;-84
2021/05/24 12:04:53;;;;;;;1999.90;999.90;;;16.30;99.90;;;;;;4906372;29;20879;-84
2021/05/24 12:10:24;;;;;;;1999.90;999.90;;;16.20;99.50;;;;;;5049230;22;20503;-84
2021/05/24 12:14:11;;;;;;;;;;;;;;;;;;;;;
2021/05/24 12:17:09;;;;;;;1999.90;999.90;;;16.30;99.90;;;;;;4988399;28;20502;-84
2021/05/24 12:19:45;;;;;;;1999.90;999.90;;;16.40;99.90;;;;;;5025090;28;20432;-84
2021/05/24 12:26:02;;;;;;;1999.90;999.90;;;16.70;99.80;;;;;;4980756;28;20583;-84
2021/05/24 12:29:18;;;;;;;1999.90;999.90;;;16.70;99.90;;;;;;5024143;23;20568;-84
2021/05/24 12:33:10;;;;;;;1999.90;999.90;;;16.80;99.70;;;;;;5024072;28;20420;-84
2021/05/24 12:43:29;;;;;;;1999.90;999.90;;;17.10;98.20;;;;;;4964119;28;20477;-85
2021/05/24 13:10:38;;;;;;;1999.90;999.90;;;16.70;99.90;;;;;;4962816;29;20542;-85
2021/05/24 13:13:52;;;;;;;;;;;;;;;;;;;;;
2021/05/24 13:31:14;;;;;;;1999.90;999.90;;;16.80;97.80;;;;;;4781440;30;20463;-84
2021/05/24 13:34:30;;;;;;;1999.90;999.90;;;16.60;96.60;;;;;;4777639;30;20471;-84
2021/05/24 13:40:46;;;;;;;1999.90;999.90;;;16.50;97.40;;;;;;5081610;23;20491;-84
2021/05/24 13:44:01;;;;;;;1999.90;999.90;;;16.60;97.00;;;;;;5062224;28;20454;-84